sensor_id;sensor_type;location;lat;lon;timestamp;P1;durP1;ratioP1;P2;durP2;ratioP2
26106;SDS011;13866;50.748;12.630;2023-03-23T00:01:06;0.90;;;0.90;;
26106;SDS011;13866;50.748;12.630;2023-03-23T00:03:35;1.10;;;1.10;;
26106;SDS011;13866;50.748;12.630;2023-03-23T00:06:01;0.90;;;0.90;;
26106;SDS011;13866;50.748;12.630;2023-03-23T00:08:34;2.10;;;0.80;;
26106;SDS011;13866;50.748;12.630;2023-03-23T00:11:02;1.33;;;1.10;;
26106;SDS011;13866;50.748;12.630;2023-03-23T00:13:32;1.33;;;1.23;;
26106;SDS011;13866;50.748;12.630;2023-03-23T00:15:57;1.20;;;1.10;;
26106;SDS011;13866;50.748;12.630;2023-03-23T00:18:23;0.90;;;0.90;;
26106;SDS011;13866;50.748;12.630;2023-03-23T00:20:50;0.83;;;0.83;;
26106;SDS011;13866;50.748;12.630;2023-03-23T00:23:20;1.30;;;1.30;;
26106;SDS011;13866;50.748;12.630;2023-03-23T00:25:49;1.03;;;1.03;;
26106;SDS011;13866;50.748;12.630;2023-03-23T00:28:17;5.90;;;1.23;;
26106;SDS011;13866;50.748;12.630;2023-03-23T00:30:49;1.20;;;1.10;;
26106;SDS011;13866;50.748;12.630;2023-03-23T00:33:21;0.93;;;0.93;;
26106;SDS011;13866;50.748;12.630;2023-03-23T00:35:47;1.10;;;1.00;;
26106;SDS011;13866;50.748;12.630;2023-03-23T00:38:13;1.37;;;0.80;;
26106;SDS011;13866;50.748;12.630;2023-03-23T00:40:39;1.13;;;0.87;;
26106;SDS011;13866;50.748;12.630;2023-03-23T00:43:04;0.80;;;0.80;;
26106;SDS011;13866;50.748;12.630;2023-03-23T00:45:30;0.83;;;0.83;;
26106;SDS011;13866;50.748;12.630;2023-03-23T00:47:56;0.83;;;0.83;;
26106;SDS011;13866;50.748;12.630;2023-03-23T00:50:26;2.10;;;0.80;;
26106;SDS011;13866;50.748;12.630;2023-03-23T00:52:52;1.27;;;1.17;;
26106;SDS011;13866;50.748;12.630;2023-03-23T00:55:20;0.80;;;0.80;;
26106;SDS011;13866;50.748;12.630;2023-03-23T00:57:45;1.13;;;1.03;;
26106;SDS011;13866;50.748;12.630;2023-03-23T01:00:13;0.93;;;0.93;;
26106;SDS011;13866;50.748;12.630;2023-03-23T01:02:39;1.13;;;1.03;;
26106;SDS011;13866;50.748;12.630;2023-03-23T01:05:05;0.97;;;0.97;;
26106;SDS011;13866;50.748;12.630;2023-03-23T01:07:31;3.87;;;1.27;;
26106;SDS011;13866;50.748;12.630;2023-03-23T01:09:56;1.00;;;1.00;;
26106;SDS011;13866;50.748;12.630;2023-03-23T01:12:22;0.90;;;0.90;;
26106;SDS011;13866;50.748;12.630;2023-03-23T01:14:49;1.20;;;1.20;;
26106;SDS011;13866;50.748;12.630;2023-03-23T01:17:16;1.00;;;1.00;;
26106;SDS011;13866;50.748;12.630;2023-03-23T01:19:41;0.87;;;0.87;;
26106;SDS011;13866;50.748;12.630;2023-03-23T01:22:07;0.70;;;0.70;;
26106;SDS011;13866;50.748;12.630;2023-03-23T01:24:32;1.10;;;1.10;;
26106;SDS011;13866;50.748;12.630;2023-03-23T01:26:58;0.90;;;0.90;;
26106;SDS011;13866;50.748;12.630;2023-03-23T01:29:26;3.80;;;1.30;;
26106;SDS011;13866;50.748;12.630;2023-03-23T01:31:52;0.93;;;0.93;;
26106;SDS011;13866;50.748;12.630;2023-03-23T01:34:17;1.53;;;0.83;;
26106;SDS011;13866;50.748;12.630;2023-03-23T01:36:43;1.00;;;1.00;;
26106;SDS011;13866;50.748;12.630;2023-03-23T01:39:08;0.90;;;0.90;;
26106;SDS011;13866;50.748;12.630;2023-03-23T01:41:34;3.50;;;0.93;;
26106;SDS011;13866;50.748;12.630;2023-03-23T01:44:02;1.07;;;1.07;;
26106;SDS011;13866;50.748;12.630;2023-03-23T01:46:30;1.13;;;1.13;;
26106;SDS011;13866;50.748;12.630;2023-03-23T01:48:58;1.23;;;1.23;;
26106;SDS011;13866;50.748;12.630;2023-03-23T01:51:31;1.50;;;0.93;;
26106;SDS011;13866;50.748;12.630;2023-03-23T01:54:00;1.60;;;0.83;;
26106;SDS011;13866;50.748;12.630;2023-03-23T01:56:31;1.17;;;1.17;;
26106;SDS011;13866;50.748;12.630;2023-03-23T01:59:05;1.60;;;1.50;;
26106;SDS011;13866;50.748;12.630;2023-03-23T02:01:32;1.10;;;1.10;;
26106;SDS011;13866;50.748;12.630;2023-03-23T02:04:03;0.77;;;0.77;;
26106;SDS011;13866;50.748;12.630;2023-03-23T02:06:29;0.90;;;0.90;;
26106;SDS011;13866;50.748;12.630;2023-03-23T02:08:55;1.20;;;1.20;;
26106;SDS011;13866;50.748;12.630;2023-03-23T02:11:21;1.70;;;1.10;;
26106;SDS011;13866;50.748;12.630;2023-03-23T02:13:47;1.03;;;1.03;;
26106;SDS011;13866;50.748;12.630;2023-03-23T02:16:15;1.00;;;1.00;;
26106;SDS011;13866;50.748;12.630;2023-03-23T02:18:50;0.70;;;0.70;;
26106;SDS011;13866;50.748;12.630;2023-03-23T02:21:48;1.90;;;0.93;;
26106;SDS011;13866;50.748;12.630;2023-03-23T02:27:17;1.03;;;1.03;;
26106;SDS011;13866;50.748;12.630;2023-03-23T02:30:32;0.70;;;0.70;;
26106;SDS011;13866;50.748;12.630;2023-03-23T02:33:28;1.10;;;1.10;;
26106;SDS011;13866;50.748;12.630;2023-03-23T02:36:23;3.60;;;1.00;;
26106;SDS011;13866;50.748;12.630;2023-03-23T02:41:44;1.20;;;1.20;;
26106;SDS011;13866;50.748;12.630;2023-03-23T02:44:22;1.30;;;1.20;;
26106;SDS011;13866;50.748;12.630;2023-03-23T02:46:54;0.77;;;0.77;;
26106;SDS011;13866;50.748;12.630;2023-03-23T02:49:21;1.37;;;1.37;;
26106;SDS011;13866;50.748;12.630;2023-03-23T02:51:49;1.10;;;1.10;;
26106;SDS011;13866;50.748;12.630;2023-03-23T02:54:16;1.90;;;1.20;;
26106;SDS011;13866;50.748;12.630;2023-03-23T02:56:43;1.07;;;1.07;;
26106;SDS011;13866;50.748;12.630;2023-03-23T02:59:10;1.33;;;1.33;;
26106;SDS011;13866;50.748;12.630;2023-03-23T03:04:03;1.60;;;0.97;;
26106;SDS011;13866;50.748;12.630;2023-03-23T03:06:36;1.17;;;1.17;;
26106;SDS011;13866;50.748;12.630;2023-03-23T03:09:26;1.00;;;1.00;;
26106;SDS011;13866;50.748;12.630;2023-03-23T03:12:07;1.47;;;1.07;;
26106;SDS011;13866;50.748;12.630;2023-03-23T03:14:39;1.80;;;1.70;;
26106;SDS011;13866;50.748;12.630;2023-03-23T03:17:16;0.77;;;0.77;;
26106;SDS011;13866;50.748;12.630;2023-03-23T03:19:55;1.50;;;0.90;;
26106;SDS011;13866;50.748;12.630;2023-03-23T03:22:34;0.70;;;0.70;;
26106;SDS011;13866;50.748;12.630;2023-03-23T03:25:02;1.03;;;1.03;;
26106;SDS011;13866;50.748;12.630;2023-03-23T03:27:28;1.10;;;1.10;;
26106;SDS011;13866;50.748;12.630;2023-03-23T03:29:56;0.93;;;0.93;;
26106;SDS011;13866;50.748;12.630;2023-03-23T03:32:28;2.50;;;0.97;;
26106;SDS011;13866;50.748;12.630;2023-03-23T03:35:00;1.50;;;1.50;;
26106;SDS011;13866;50.748;12.630;2023-03-23T03:37:26;3.30;;;1.20;;
26106;SDS011;13866;50.748;12.630;2023-03-23T03:39:52;1.43;;;1.30;;
26106;SDS011;13866;50.748;12.630;2023-03-23T03:42:17;1.27;;;1.27;;
26106;SDS011;13866;50.748;12.630;2023-03-23T03:44:42;1.20;;;1.20;;
26106;SDS011;13866;50.748;12.630;2023-03-23T03:47:08;1.23;;;1.13;;
26106;SDS011;13866;50.748;12.630;2023-03-23T03:49:33;1.23;;;1.23;;
26106;SDS011;13866;50.748;12.630;2023-03-23T03:52:00;1.70;;;1.60;;
26106;SDS011;13866;50.748;12.630;2023-03-23T03:54:25;1.90;;;1.07;;
26106;SDS011;13866;50.748;12.630;2023-03-23T03:56:51;1.20;;;1.20;;
26106;SDS011;13866;50.748;12.630;2023-03-23T03:59:22;1.60;;;1.00;;
26106;SDS011;13866;50.748;12.630;2023-03-23T04:01:48;2.40;;;1.50;;
26106;SDS011;13866;50.748;12.630;2023-03-23T04:04:18;1.10;;;1.10;;
26106;SDS011;13866;50.748;12.630;2023-03-23T04:06:44;1.33;;;1.33;;
26106;SDS011;13866;50.748;12.630;2023-03-23T04:09:10;1.10;;;1.10;;
26106;SDS011;13866;50.748;12.630;2023-03-23T04:11:35;3.90;;;1.23;;
26106;SDS011;13866;50.748;12.630;2023-03-23T04:14:01;2.33;;;1.43;;
26106;SDS011;13866;50.748;12.630;2023-03-23T04:16:27;2.30;;;0.97;;
26106;SDS011;13866;50.748;12.630;2023-03-23T04:18:54;1.80;;;1.80;;
26106;SDS011;13866;50.748;12.630;2023-03-23T04:21:21;1.30;;;1.30;;
26106;SDS011;13866;50.748;12.630;2023-03-23T04:23:46;1.20;;;1.20;;
26106;SDS011;13866;50.748;12.630;2023-03-23T04:26:12;1.50;;;1.50;;
26106;SDS011;13866;50.748;12.630;2023-03-23T04:28:38;1.33;;;1.33;;
26106;SDS011;13866;50.748;12.630;2023-03-23T04:31:04;1.67;;;1.57;;
26106;SDS011;13866;50.748;12.630;2023-03-23T04:33:29;1.63;;;1.63;;
26106;SDS011;13866;50.748;12.630;2023-03-23T04:35:56;1.43;;;1.10;;
26106;SDS011;13866;50.748;12.630;2023-03-23T04:38:26;1.10;;;1.10;;
26106;SDS011;13866;50.748;12.630;2023-03-23T04:40:53;1.30;;;1.30;;
26106;SDS011;13866;50.748;12.630;2023-03-23T04:43:19;3.00;;;1.53;;
26106;SDS011;13866;50.748;12.630;2023-03-23T04:45:52;1.10;;;1.10;;
26106;SDS011;13866;50.748;12.630;2023-03-23T04:48:21;1.43;;;1.43;;
26106;SDS011;13866;50.748;12.630;2023-03-23T04:50:48;1.80;;;1.70;;
26106;SDS011;13866;50.748;12.630;2023-03-23T04:53:15;1.77;;;1.77;;
26106;SDS011;13866;50.748;12.630;2023-03-23T04:55:42;1.60;;;1.37;;
26106;SDS011;13866;50.748;12.630;2023-03-23T04:58:08;1.30;;;1.20;;
26106;SDS011;13866;50.748;12.630;2023-03-23T05:00:34;1.60;;;1.60;;
26106;SDS011;13866;50.748;12.630;2023-03-23T05:03:00;1.03;;;1.03;;
26106;SDS011;13866;50.748;12.630;2023-03-23T05:05:26;1.93;;;1.73;;
26106;SDS011;13866;50.748;12.630;2023-03-23T05:07:55;1.27;;;1.17;;
26106;SDS011;13866;50.748;12.630;2023-03-23T05:10:21;3.70;;;1.40;;
26106;SDS011;13866;50.748;12.630;2023-03-23T05:12:47;1.33;;;1.27;;
26106;SDS011;13866;50.748;12.630;2023-03-23T05:15:14;1.73;;;1.60;;
26106;SDS011;13866;50.748;12.630;2023-03-23T05:17:41;1.40;;;1.40;;
26106;SDS011;13866;50.748;12.630;2023-03-23T05:20:09;1.10;;;1.10;;
26106;SDS011;13866;50.748;12.630;2023-03-23T05:22:37;1.10;;;1.10;;
26106;SDS011;13866;50.748;12.630;2023-03-23T05:25:03;1.60;;;1.60;;
26106;SDS011;13866;50.748;12.630;2023-03-23T05:27:30;3.43;;;1.20;;
26106;SDS011;13866;50.748;12.630;2023-03-23T05:29:57;1.50;;;1.50;;
26106;SDS011;13866;50.748;12.630;2023-03-23T05:32:26;1.00;;;1.00;;
26106;SDS011;13866;50.748;12.630;2023-03-23T05:34:58;1.17;;;1.17;;
26106;SDS011;13866;50.748;12.630;2023-03-23T05:37:25;1.60;;;1.50;;
26106;SDS011;13866;50.748;12.630;2023-03-23T05:39:52;1.90;;;1.90;;
26106;SDS011;13866;50.748;12.630;2023-03-23T05:42:20;1.30;;;1.30;;
26106;SDS011;13866;50.748;12.630;2023-03-23T05:44:49;1.30;;;1.30;;
26106;SDS011;13866;50.748;12.630;2023-03-23T05:47:15;1.17;;;1.07;;
26106;SDS011;13866;50.748;12.630;2023-03-23T05:49:41;0.90;;;0.90;;
26106;SDS011;13866;50.748;12.630;2023-03-23T05:52:07;1.23;;;1.23;;
26106;SDS011;13866;50.748;12.630;2023-03-23T05:54:33;1.47;;;1.40;;
26106;SDS011;13866;50.748;12.630;2023-03-23T05:56:59;1.40;;;1.40;;
26106;SDS011;13866;50.748;12.630;2023-03-23T05:59:24;1.10;;;1.10;;
26106;SDS011;13866;50.748;12.630;2023-03-23T06:01:51;1.20;;;1.20;;
26106;SDS011;13866;50.748;12.630;2023-03-23T06:04:18;1.30;;;1.30;;
26106;SDS011;13866;50.748;12.630;2023-03-23T06:06:44;1.40;;;1.30;;
26106;SDS011;13866;50.748;12.630;2023-03-23T06:09:10;1.20;;;1.20;;
26106;SDS011;13866;50.748;12.630;2023-03-23T06:11:36;1.50;;;1.50;;
26106;SDS011;13866;50.748;12.630;2023-03-23T06:14:01;1.27;;;1.27;;
26106;SDS011;13866;50.748;12.630;2023-03-23T06:16:28;1.30;;;1.30;;
26106;SDS011;13866;50.748;12.630;2023-03-23T06:18:54;1.20;;;1.20;;
26106;SDS011;13866;50.748;12.630;2023-03-23T06:21:21;1.50;;;1.40;;
26106;SDS011;13866;50.748;12.630;2023-03-23T06:23:47;1.07;;;1.07;;
26106;SDS011;13866;50.748;12.630;2023-03-23T06:26:13;1.73;;;1.73;;
26106;SDS011;13866;50.748;12.630;2023-03-23T06:28:41;1.33;;;1.33;;
26106;SDS011;13866;50.748;12.630;2023-03-23T06:31:07;1.57;;;1.13;;
26106;SDS011;13866;50.748;12.630;2023-03-23T06:33:33;1.17;;;1.17;;
26106;SDS011;13866;50.748;12.630;2023-03-23T06:36:00;1.10;;;1.10;;
26106;SDS011;13866;50.748;12.630;2023-03-23T06:38:26;1.60;;;1.60;;
26106;SDS011;13866;50.748;12.630;2023-03-23T06:40:52;1.47;;;1.47;;
26106;SDS011;13866;50.748;12.630;2023-03-23T06:43:19;1.37;;;1.37;;
26106;SDS011;13866;50.748;12.630;2023-03-23T06:45:45;1.23;;;1.10;;
26106;SDS011;13866;50.748;12.630;2023-03-23T06:48:10;1.47;;;1.47;;
26106;SDS011;13866;50.748;12.630;2023-03-23T06:50:36;1.47;;;1.47;;
26106;SDS011;13866;50.748;12.630;2023-03-23T06:53:01;3.73;;;1.30;;
26106;SDS011;13866;50.748;12.630;2023-03-23T06:55:26;1.00;;;1.00;;
26106;SDS011;13866;50.748;12.630;2023-03-23T06:57:52;1.17;;;1.10;;
26106;SDS011;13866;50.748;12.630;2023-03-23T07:00:18;1.60;;;1.60;;
26106;SDS011;13866;50.748;12.630;2023-03-23T07:02:43;1.50;;;1.27;;
26106;SDS011;13866;50.748;12.630;2023-03-23T07:05:09;1.63;;;1.63;;
26106;SDS011;13866;50.748;12.630;2023-03-23T07:07:39;1.10;;;1.10;;
26106;SDS011;13866;50.748;12.630;2023-03-23T07:10:06;1.20;;;1.20;;
26106;SDS011;13866;50.748;12.630;2023-03-23T07:12:33;1.03;;;1.03;;
26106;SDS011;13866;50.748;12.630;2023-03-23T07:15:00;4.57;;;1.20;;
26106;SDS011;13866;50.748;12.630;2023-03-23T07:17:27;1.30;;;1.30;;
26106;SDS011;13866;50.748;12.630;2023-03-23T07:19:53;1.90;;;1.20;;
26106;SDS011;13866;50.748;12.630;2023-03-23T07:22:19;2.20;;;1.30;;
26106;SDS011;13866;50.748;12.630;2023-03-23T07:24:44;2.30;;;1.70;;
26106;SDS011;13866;50.748;12.630;2023-03-23T07:27:10;1.67;;;1.17;;
26106;SDS011;13866;50.748;12.630;2023-03-23T07:29:36;1.20;;;1.20;;
26106;SDS011;13866;50.748;12.630;2023-03-23T07:32:03;0.90;;;0.90;;
26106;SDS011;13866;50.748;12.630;2023-03-23T07:34:30;2.50;;;1.63;;
26106;SDS011;13866;50.748;12.630;2023-03-23T07:36:56;1.43;;;1.43;;
26106;SDS011;13866;50.748;12.630;2023-03-23T07:39:22;1.30;;;1.30;;
26106;SDS011;13866;50.748;12.630;2023-03-23T07:41:48;1.47;;;1.47;;
26106;SDS011;13866;50.748;12.630;2023-03-23T07:44:14;2.00;;;1.80;;
26106;SDS011;13866;50.748;12.630;2023-03-23T07:46:40;1.33;;;1.33;;
26106;SDS011;13866;50.748;12.630;2023-03-23T07:49:06;1.77;;;1.67;;
26106;SDS011;13866;50.748;12.630;2023-03-23T07:51:33;1.13;;;1.13;;
26106;SDS011;13866;50.748;12.630;2023-03-23T07:53:59;1.27;;;1.27;;
26106;SDS011;13866;50.748;12.630;2023-03-23T07:56:27;1.47;;;1.47;;
26106;SDS011;13866;50.748;12.630;2023-03-23T07:58:52;1.50;;;1.40;;
26106;SDS011;13866;50.748;12.630;2023-03-23T08:01:18;1.40;;;1.40;;
26106;SDS011;13866;50.748;12.630;2023-03-23T08:03:43;1.43;;;1.43;;
26106;SDS011;13866;50.748;12.630;2023-03-23T08:06:09;1.60;;;1.50;;
26106;SDS011;13866;50.748;12.630;2023-03-23T08:08:34;1.63;;;1.63;;
26106;SDS011;13866;50.748;12.630;2023-03-23T08:11:01;2.53;;;1.80;;
26106;SDS011;13866;50.748;12.630;2023-03-23T08:13:28;1.63;;;1.53;;
26106;SDS011;13866;50.748;12.630;2023-03-23T08:15:54;1.57;;;1.57;;
26106;SDS011;13866;50.748;12.630;2023-03-23T08:18:19;1.33;;;1.33;;
26106;SDS011;13866;50.748;12.630;2023-03-23T08:20:44;1.70;;;1.70;;
26106;SDS011;13866;50.748;12.630;2023-03-23T08:23:10;2.40;;;1.77;;
26106;SDS011;13866;50.748;12.630;2023-03-23T08:25:36;3.00;;;1.80;;
26106;SDS011;13866;50.748;12.630;2023-03-23T08:28:02;1.30;;;1.30;;
26106;SDS011;13866;50.748;12.630;2023-03-23T08:30:28;2.30;;;1.63;;
26106;SDS011;13866;50.748;12.630;2023-03-23T08:32:57;2.17;;;2.00;;
26106;SDS011;13866;50.748;12.630;2023-03-23T08:35:23;1.60;;;1.60;;
26106;SDS011;13866;50.748;12.630;2023-03-23T08:37:49;1.60;;;1.50;;
26106;SDS011;13866;50.748;12.630;2023-03-23T08:40:19;1.30;;;1.30;;
26106;SDS011;13866;50.748;12.630;2023-03-23T08:42:47;1.63;;;1.63;;
26106;SDS011;13866;50.748;12.630;2023-03-23T08:45:15;1.67;;;1.67;;
26106;SDS011;13866;50.748;12.630;2023-03-23T08:47:43;1.80;;;1.73;;
26106;SDS011;13866;50.748;12.630;2023-03-23T08:50:11;1.97;;;1.90;;
26106;SDS011;13866;50.748;12.630;2023-03-23T08:52:39;1.73;;;1.73;;
26106;SDS011;13866;50.748;12.630;2023-03-23T08:55:06;2.00;;;2.00;;
26106;SDS011;13866;50.748;12.630;2023-03-23T08:57:33;1.77;;;1.77;;
26106;SDS011;13866;50.748;12.630;2023-03-23T09:00:00;1.67;;;1.67;;
26106;SDS011;13866;50.748;12.630;2023-03-23T09:02:43;1.57;;;1.57;;
26106;SDS011;13866;50.748;12.630;2023-03-23T09:05:10;2.07;;;1.97;;
26106;SDS011;13866;50.748;12.630;2023-03-23T09:07:37;3.13;;;2.03;;
26106;SDS011;13866;50.748;12.630;2023-03-23T09:10:06;1.37;;;1.37;;
26106;SDS011;13866;50.748;12.630;2023-03-23T09:12:33;3.13;;;1.60;;
26106;SDS011;13866;50.748;12.630;2023-03-23T09:14:58;5.73;;;1.50;;
26106;SDS011;13866;50.748;12.630;2023-03-23T09:17:24;1.60;;;1.60;;
26106;SDS011;13866;50.748;12.630;2023-03-23T09:19:50;1.73;;;1.73;;
26106;SDS011;13866;50.748;12.630;2023-03-23T09:22:15;2.40;;;1.80;;
26106;SDS011;13866;50.748;12.630;2023-03-23T09:24:44;5.10;;;1.30;;
26106;SDS011;13866;50.748;12.630;2023-03-23T09:27:11;1.77;;;1.67;;
26106;SDS011;13866;50.748;12.630;2023-03-23T09:29:37;2.00;;;1.40;;
26106;SDS011;13866;50.748;12.630;2023-03-23T09:32:03;1.20;;;1.20;;
26106;SDS011;13866;50.748;12.630;2023-03-23T09:34:28;1.33;;;1.30;;
26106;SDS011;13866;50.748;12.630;2023-03-23T09:36:54;1.90;;;1.80;;
26106;SDS011;13866;50.748;12.630;2023-03-23T09:39:19;2.50;;;2.07;;
26106;SDS011;13866;50.748;12.630;2023-03-23T09:44:45;1.50;;;1.50;;
26106;SDS011;13866;50.748;12.630;2023-03-23T09:52:15;1.50;;;1.50;;
26106;SDS011;13866;50.748;12.630;2023-03-23T09:54:52;2.20;;;1.80;;
26106;SDS011;13866;50.748;12.630;2023-03-23T09:57:25;4.00;;;1.93;;
26106;SDS011;13866;50.748;12.630;2023-03-23T10:00:04;1.83;;;1.73;;
26106;SDS011;13866;50.748;12.630;2023-03-23T10:02:41;1.43;;;1.43;;
26106;SDS011;13866;50.748;12.630;2023-03-23T10:05:22;1.10;;;1.10;;
26106;SDS011;13866;50.748;12.630;2023-03-23T10:07:58;1.50;;;1.50;;
26106;SDS011;13866;50.748;12.630;2023-03-23T10:10:59;3.10;;;1.67;;
26106;SDS011;13866;50.748;12.630;2023-03-23T10:16:12;1.77;;;1.77;;
26106;SDS011;13866;50.748;12.630;2023-03-23T10:18:49;1.80;;;1.70;;
26106;SDS011;13866;50.748;12.630;2023-03-23T10:21:26;1.63;;;1.53;;
26106;SDS011;13866;50.748;12.630;2023-03-23T10:23:58;1.67;;;1.67;;
26106;SDS011;13866;50.748;12.630;2023-03-23T10:26:48;1.60;;;1.60;;
26106;SDS011;13866;50.748;12.630;2023-03-23T10:29:17;1.50;;;1.37;;
26106;SDS011;13866;50.748;12.630;2023-03-23T10:31:59;1.50;;;1.40;;
26106;SDS011;13866;50.748;12.630;2023-03-23T10:34:47;2.60;;;1.50;;
26106;SDS011;13866;50.748;12.630;2023-03-23T10:37:31;1.73;;;1.63;;
26106;SDS011;13866;50.748;12.630;2023-03-23T10:40:02;2.03;;;2.03;;
26106;SDS011;13866;50.748;12.630;2023-03-23T10:42:35;1.83;;;1.73;;
26106;SDS011;13866;50.748;12.630;2023-03-23T10:45:15;1.50;;;1.50;;
26106;SDS011;13866;50.748;12.630;2023-03-23T10:47:43;1.87;;;1.87;;
26106;SDS011;13866;50.748;12.630;2023-03-23T10:50:15;3.03;;;2.87;;
26106;SDS011;13866;50.748;12.630;2023-03-23T10:52:43;2.47;;;2.20;;
26106;SDS011;13866;50.748;12.630;2023-03-23T10:55:16;3.20;;;2.40;;
26106;SDS011;13866;50.748;12.630;2023-03-23T10:57:58;1.50;;;1.50;;
26106;SDS011;13866;50.748;12.630;2023-03-23T11:00:29;1.80;;;1.80;;
26106;SDS011;13866;50.748;12.630;2023-03-23T11:03:05;3.23;;;1.23;;
26106;SDS011;13866;50.748;12.630;2023-03-23T11:05:54;4.13;;;1.40;;
26106;SDS011;13866;50.748;12.630;2023-03-23T11:08:25;2.00;;;1.90;;
26106;SDS011;13866;50.748;12.630;2023-03-23T11:13:22;1.57;;;1.57;;
26106;SDS011;13866;50.748;12.630;2023-03-23T11:15:53;12.13;;;2.60;;
26106;SDS011;13866;50.748;12.630;2023-03-23T11:18:20;2.30;;;2.20;;
26106;SDS011;13866;50.748;12.630;2023-03-23T11:20:49;11.00;;;2.23;;
26106;SDS011;13866;50.748;12.630;2023-03-23T11:23:23;6.53;;;1.70;;
26106;SDS011;13866;50.748;12.630;2023-03-23T11:25:56;3.70;;;1.80;;
26106;SDS011;13866;50.748;12.630;2023-03-23T11:31:27;1.77;;;1.77;;
26106;SDS011;13866;50.748;12.630;2023-03-23T11:33:57;2.60;;;1.80;;
26106;SDS011;13866;50.748;12.630;2023-03-23T11:38:57;2.50;;;2.30;;
26106;SDS011;13866;50.748;12.630;2023-03-23T11:41:23;2.40;;;2.30;;
26106;SDS011;13866;50.748;12.630;2023-03-23T11:43:51;2.73;;;2.10;;
26106;SDS011;13866;50.748;12.630;2023-03-23T11:46:33;2.13;;;2.03;;
26106;SDS011;13866;50.748;12.630;2023-03-23T11:49:01;2.20;;;2.20;;
26106;SDS011;13866;50.748;12.630;2023-03-23T11:54:15;1.73;;;1.70;;
26106;SDS011;13866;50.748;12.630;2023-03-23T11:56:44;1.43;;;1.33;;
26106;SDS011;13866;50.748;12.630;2023-03-23T11:59:15;4.43;;;1.90;;
26106;SDS011;13866;50.748;12.630;2023-03-23T12:01:46;1.83;;;1.83;;
26106;SDS011;13866;50.748;12.630;2023-03-23T12:07:20;1.50;;;1.50;;
26106;SDS011;13866;50.748;12.630;2023-03-23T12:09:54;1.80;;;1.80;;
26106;SDS011;13866;50.748;12.630;2023-03-23T12:12:57;2.10;;;1.93;;
26106;SDS011;13866;50.748;12.630;2023-03-23T12:15:25;1.80;;;1.67;;
26106;SDS011;13866;50.748;12.630;2023-03-23T12:23:24;3.13;;;1.90;;
26106;SDS011;13866;50.748;12.630;2023-03-23T12:25:57;1.50;;;1.50;;
26106;SDS011;13866;50.748;12.630;2023-03-23T12:31:40;1.20;;;1.20;;
26106;SDS011;13866;50.748;12.630;2023-03-23T12:37:55;1.43;;;1.33;;
26106;SDS011;13866;50.748;12.630;2023-03-23T12:48:06;1.90;;;1.57;;
26106;SDS011;13866;50.748;12.630;2023-03-23T12:50:44;1.27;;;1.27;;
26106;SDS011;13866;50.748;12.630;2023-03-23T12:53:28;1.57;;;1.47;;
26106;SDS011;13866;50.748;12.630;2023-03-23T12:58:43;1.93;;;1.93;;
26106;SDS011;13866;50.748;12.630;2023-03-23T13:01:22;1.70;;;1.70;;
26106;SDS011;13866;50.748;12.630;2023-03-23T13:04:08;1.67;;;1.57;;
26106;SDS011;13866;50.748;12.630;2023-03-23T13:06:39;1.80;;;1.80;;
26106;SDS011;13866;50.748;12.630;2023-03-23T13:12:03;1.40;;;1.40;;
26106;SDS011;13866;50.748;12.630;2023-03-23T13:23:20;1.33;;;1.33;;
26106;SDS011;13866;50.748;12.630;2023-03-23T13:25:51;1.20;;;1.20;;
26106;SDS011;13866;50.748;12.630;2023-03-23T13:28:26;1.10;;;1.10;;
26106;SDS011;13866;50.748;12.630;2023-03-23T13:30:58;1.50;;;1.50;;
26106;SDS011;13866;50.748;12.630;2023-03-23T13:33:25;1.50;;;1.50;;
26106;SDS011;13866;50.748;12.630;2023-03-23T13:35:54;1.20;;;1.20;;
26106;SDS011;13866;50.748;12.630;2023-03-23T13:38:24;1.20;;;1.20;;
26106;SDS011;13866;50.748;12.630;2023-03-23T13:40:53;2.00;;;1.90;;
26106;SDS011;13866;50.748;12.630;2023-03-23T13:43:28;1.57;;;1.47;;
26106;SDS011;13866;50.748;12.630;2023-03-23T13:46:07;1.60;;;1.60;;
26106;SDS011;13866;50.748;12.630;2023-03-23T13:48:40;1.40;;;1.40;;
26106;SDS011;13866;50.748;12.630;2023-03-23T13:51:25;1.90;;;1.30;;
26106;SDS011;13866;50.748;12.630;2023-03-23T13:54:05;1.27;;;1.27;;
26106;SDS011;13866;50.748;12.630;2023-03-23T13:56:40;1.33;;;1.10;;
26106;SDS011;13866;50.748;12.630;2023-03-23T14:01:55;1.07;;;1.07;;
26106;SDS011;13866;50.748;12.630;2023-03-23T14:04:23;1.10;;;1.10;;
26106;SDS011;13866;50.748;12.630;2023-03-23T14:07:07;2.33;;;1.00;;
26106;SDS011;13866;50.748;12.630;2023-03-23T14:09:41;1.27;;;1.27;;
26106;SDS011;13866;50.748;12.630;2023-03-23T14:12:17;1.20;;;1.20;;
26106;SDS011;13866;50.748;12.630;2023-03-23T14:15:11;2.00;;;1.37;;
26106;SDS011;13866;50.748;12.630;2023-03-23T14:17:33;0.80;;;0.80;;
26106;SDS011;13866;50.748;12.630;2023-03-23T14:20:06;1.20;;;1.20;;
26106;SDS011;13866;50.748;12.630;2023-03-23T14:22:36;1.27;;;1.27;;
26106;SDS011;13866;50.748;12.630;2023-03-23T14:25:14;0.90;;;0.90;;
26106;SDS011;13866;50.748;12.630;2023-03-23T14:27:41;1.10;;;1.07;;
26106;SDS011;13866;50.748;12.630;2023-03-23T14:30:08;0.83;;;0.83;;
26106;SDS011;13866;50.748;12.630;2023-03-23T14:32:39;1.20;;;1.20;;
26106;SDS011;13866;50.748;12.630;2023-03-23T14:35:07;1.37;;;1.27;;
26106;SDS011;13866;50.748;12.630;2023-03-23T14:37:54;1.37;;;1.17;;
26106;SDS011;13866;50.748;12.630;2023-03-23T14:40:21;1.20;;;1.20;;
26106;SDS011;13866;50.748;12.630;2023-03-23T14:42:47;0.93;;;0.93;;
26106;SDS011;13866;50.748;12.630;2023-03-23T14:45:16;6.43;;;1.30;;
26106;SDS011;13866;50.748;12.630;2023-03-23T14:47:44;0.93;;;0.93;;
26106;SDS011;13866;50.748;12.630;2023-03-23T14:50:49;0.90;;;0.90;;
26106;SDS011;13866;50.748;12.630;2023-03-23T14:53:28;1.07;;;1.07;;
26106;SDS011;13866;50.748;12.630;2023-03-23T14:55:54;1.13;;;1.00;;
26106;SDS011;13866;50.748;12.630;2023-03-23T14:58:22;1.20;;;1.20;;
26106;SDS011;13866;50.748;12.630;2023-03-23T15:00:56;1.07;;;1.07;;
26106;SDS011;13866;50.748;12.630;2023-03-23T15:03:27;1.13;;;1.03;;
26106;SDS011;13866;50.748;12.630;2023-03-23T15:05:59;1.03;;;1.00;;
26106;SDS011;13866;50.748;12.630;2023-03-23T15:08:29;2.40;;;1.13;;
26106;SDS011;13866;50.748;12.630;2023-03-23T15:11:04;1.13;;;1.13;;
26106;SDS011;13866;50.748;12.630;2023-03-23T15:13:37;0.97;;;0.97;;
26106;SDS011;13866;50.748;12.630;2023-03-23T15:16:17;1.10;;;1.10;;
26106;SDS011;13866;50.748;12.630;2023-03-23T15:18:55;1.20;;;1.20;;
26106;SDS011;13866;50.748;12.630;2023-03-23T15:21:26;1.53;;;1.37;;
26106;SDS011;13866;50.748;12.630;2023-03-23T15:23:54;0.90;;;0.90;;
26106;SDS011;13866;50.748;12.630;2023-03-23T15:26:24;3.90;;;0.90;;
26106;SDS011;13866;50.748;12.630;2023-03-23T15:29:02;1.73;;;1.60;;
26106;SDS011;13866;50.748;12.630;2023-03-23T15:31:38;0.90;;;0.90;;
26106;SDS011;13866;50.748;12.630;2023-03-23T15:34:05;1.03;;;1.03;;
26106;SDS011;13866;50.748;12.630;2023-03-23T15:36:36;1.00;;;1.00;;
26106;SDS011;13866;50.748;12.630;2023-03-23T15:39:02;1.00;;;1.00;;
26106;SDS011;13866;50.748;12.630;2023-03-23T15:41:28;5.83;;;0.77;;
26106;SDS011;13866;50.748;12.630;2023-03-23T15:43:58;1.00;;;1.00;;
26106;SDS011;13866;50.748;12.630;2023-03-23T15:46:35;1.10;;;1.10;;
26106;SDS011;13866;50.748;12.630;2023-03-23T15:51:34;2.00;;;1.90;;
26106;SDS011;13866;50.748;12.630;2023-03-23T15:54:00;1.07;;;1.07;;
26106;SDS011;13866;50.748;12.630;2023-03-23T15:56:26;1.50;;;1.47;;
26106;SDS011;13866;50.748;12.630;2023-03-23T15:58:52;0.90;;;0.90;;
26106;SDS011;13866;50.748;12.630;2023-03-23T16:01:19;2.03;;;1.30;;